createdAt,value
2022-08-20T00:02:13.773Z,1.73
2022-08-20T00:04:42.234Z,1.10
2022-08-20T00:07:10.265Z,1.60
2022-08-20T00:09:39.570Z,1.20
2022-08-20T00:12:07.958Z,1.20
2022-08-20T00:14:36.254Z,1.37
2022-08-20T00:17:05.959Z,1.50
2022-08-20T00:19:34.649Z,1.30
2022-08-20T00:22:02.627Z,1.30
2022-08-20T00:24:31.196Z,1.40
2022-08-20T00:27:00.616Z,1.17
2022-08-20T00:29:29.387Z,1.27
2022-08-20T00:31:57.367Z,1.17
2022-08-20T00:34:25.535Z,1.13
2022-08-20T00:36:53.568Z,1.30
2022-08-20T00:39:21.527Z,1.30
2022-08-20T00:41:49.473Z,1.40
2022-08-20T00:44:21.923Z,1.20
2022-08-20T00:46:51.059Z,1.30
2022-08-20T00:49:24.659Z,1.30
2022-08-20T00:51:59.276Z,1.30
2022-08-20T00:54:31.224Z,1.30
2022-08-20T00:57:03.363Z,1.40
2022-08-20T00:59:35.277Z,1.27
2022-08-20T01:02:04.797Z,1.30
2022-08-20T01:04:35.149Z,1.13
2022-08-20T01:07:06.085Z,1.10
2022-08-20T01:09:58.038Z,1.20
2022-08-20T01:12:23.603Z,1.30
2022-08-20T01:14:53.892Z,1.13
2022-08-20T01:17:25.459Z,1.60
2022-08-20T01:19:58.669Z,1.30
2022-08-20T01:23:04.537Z,1.30
2022-08-20T01:25:43.759Z,1.20
2022-08-20T01:28:13.551Z,1.20
2022-08-20T01:30:42.752Z,1.30
2022-08-20T01:33:10.845Z,1.40
2022-08-20T01:35:44.371Z,1.10
2022-08-20T01:38:13.786Z,1.40
2022-08-20T01:41:30.725Z,1.20
2022-08-20T01:44:00.117Z,1.50
2022-08-20T01:46:32.752Z,1.40
2022-08-20T01:49:15.693Z,1.30
2022-08-20T01:51:52.673Z,1.60
2022-08-20T01:54:21.516Z,1.50
2022-08-20T01:56:56.142Z,1.20
2022-08-20T01:59:25.969Z,1.40
2022-08-20T02:01:54.508Z,1.20
2022-08-20T02:04:23.038Z,1.43
2022-08-20T02:06:56.446Z,1.43
2022-08-20T02:09:27.088Z,1.10
2022-08-20T02:11:55.297Z,1.13
2022-08-20T02:14:25.571Z,1.20
2022-08-20T02:16:55.215Z,1.20
2022-08-20T02:19:27.189Z,1.33
2022-08-20T02:21:59.677Z,1.33
2022-08-20T02:24:28.004Z,1.37
2022-08-20T02:26:56.314Z,1.37
2022-08-20T02:29:26.111Z,1.47
2022-08-20T02:32:24.163Z,1.30
2022-08-20T02:34:43.160Z,1.37
2022-08-20T02:37:11.621Z,1.30
2022-08-20T02:39:40.956Z,1.40
2022-08-20T02:42:09.349Z,1.20
2022-08-20T02:44:38.752Z,1.17
2022-08-20T02:47:06.902Z,1.20
2022-08-20T02:49:35.465Z,1.40
2022-08-20T02:52:03.515Z,1.43
2022-08-20T02:54:31.516Z,1.30
2022-08-20T02:56:59.541Z,1.57
2022-08-20T02:59:27.520Z,1.40
2022-08-20T03:01:59.732Z,1.30
2022-08-20T03:04:29.498Z,1.50
2022-08-20T03:06:57.626Z,1.70
2022-08-20T03:09:25.665Z,1.67
2022-08-20T03:11:54.339Z,1.90
2022-08-20T03:14:22.324Z,1.50
2022-08-20T03:16:50.492Z,1.53
2022-08-20T03:19:19.834Z,1.90
2022-08-20T03:21:47.850Z,1.80
2022-08-20T03:24:15.840Z,1.73
2022-08-20T03:26:44.218Z,1.80
2022-08-20T03:29:12.397Z,1.80
2022-08-20T03:31:40.647Z,1.80
2022-08-20T03:34:08.588Z,1.83
2022-08-20T03:36:37.987Z,1.50
2022-08-20T03:39:11.566Z,2.20
2022-08-20T03:41:39.782Z,1.70
2022-08-20T03:44:07.831Z,1.87
2022-08-20T03:46:36.409Z,2.10
2022-08-20T03:49:04.874Z,2.00
2022-08-20T03:51:57.245Z,2.10
2022-08-20T03:54:22.777Z,2.20
2022-08-20T03:56:50.770Z,2.00
2022-08-20T03:59:18.807Z,2.07
2022-08-20T04:01:47.129Z,1.70
2022-08-20T04:04:15.310Z,1.90
2022-08-20T04:06:43.793Z,2.00
2022-08-20T04:09:12.271Z,2.10
2022-08-20T04:11:42.030Z,2.00
2022-08-20T04:14:10.413Z,2.20
2022-08-20T04:16:40.350Z,1.97
2022-08-20T04:19:08.519Z,2.13
2022-08-20T04:21:37.312Z,2.03
2022-08-20T04:24:06.799Z,2.10
2022-08-20T04:26:37.190Z,2.10
2022-08-20T04:29:06.506Z,2.60
2022-08-20T04:31:34.774Z,2.30
2022-08-20T04:34:03.725Z,2.27
2022-08-20T04:36:31.664Z,2.50
2022-08-20T04:38:59.647Z,2.73
2022-08-20T04:41:27.587Z,2.63
2022-08-20T04:43:57.093Z,2.33
2022-08-20T04:46:29.006Z,2.60
2022-08-20T04:48:58.251Z,2.70
2022-08-20T04:51:26.953Z,2.50
2022-08-20T04:53:56.531Z,2.90
2022-08-20T04:56:27.000Z,2.90
2022-08-20T04:58:58.028Z,2.70
2022-08-20T05:01:28.236Z,3.03
2022-08-20T05:03:57.718Z,2.90
2022-08-20T05:06:28.875Z,2.70
2022-08-20T05:08:58.214Z,2.73
2022-08-20T05:11:34.637Z,2.70
2022-08-20T05:14:08.537Z,3.50
2022-08-20T05:16:39.743Z,3.00
2022-08-20T05:19:09.546Z,3.20
2022-08-20T05:21:38.000Z,2.70
2022-08-20T05:24:06.414Z,2.77
2022-08-20T05:26:34.497Z,2.60
2022-08-20T05:29:04.795Z,2.57
2022-08-20T05:31:33.554Z,3.10
2022-08-20T05:34:11.027Z,2.93
2022-08-20T05:36:40.614Z,3.03
2022-08-20T05:39:09.298Z,3.00
2022-08-20T05:41:38.256Z,2.80
2022-08-20T05:44:09.850Z,2.90
2022-08-20T05:46:40.461Z,3.20
2022-08-20T05:49:10.383Z,3.20
2022-08-20T05:51:38.705Z,2.63
2022-08-20T05:54:07.800Z,2.90
2022-08-20T05:56:37.013Z,2.87
2022-08-20T05:59:06.747Z,3.10
2022-08-20T06:01:36.319Z,2.83
2022-08-20T06:04:19.457Z,3.10
2022-08-20T06:06:49.482Z,2.80
2022-08-20T06:09:28.059Z,2.90
2022-08-20T06:12:00.410Z,3.00
2022-08-20T06:14:28.418Z,2.67
2022-08-20T06:16:57.578Z,2.87
2022-08-20T06:19:32.310Z,2.70
2022-08-20T06:22:02.094Z,2.93
2022-08-20T06:24:31.377Z,2.83
2022-08-20T06:27:00.899Z,3.00
2022-08-20T06:29:30.156Z,2.70
2022-08-20T06:31:58.284Z,3.27
2022-08-20T06:34:28.436Z,3.23
2022-08-20T06:36:59.224Z,2.63
2022-08-20T06:39:29.935Z,3.17
2022-08-20T06:41:58.620Z,3.10
2022-08-20T06:44:28.442Z,3.17
2022-08-20T06:47:00.911Z,3.37
2022-08-20T06:49:28.992Z,3.30
2022-08-20T06:52:03.870Z,3.27
2022-08-20T06:54:35.000Z,3.10
2022-08-20T06:57:03.439Z,3.03
2022-08-20T06:59:31.705Z,2.97
2022-08-20T07:01:59.678Z,3.10
2022-08-20T07:04:27.985Z,3.00
2022-08-20T07:06:57.600Z,2.93
2022-08-20T07:09:26.880Z,3.27
2022-08-20T07:11:56.592Z,3.30
2022-08-20T07:14:24.553Z,3.30
2022-08-20T07:16:52.518Z,3.10
2022-08-20T07:19:20.463Z,3.73
2022-08-20T07:21:50.140Z,3.60
2022-08-20T07:24:18.033Z,2.80
2022-08-20T07:26:46.068Z,2.87
2022-08-20T07:29:15.349Z,3.13
2022-08-20T07:32:01.009Z,3.37
2022-08-20T07:34:31.305Z,2.87
2022-08-20T07:37:00.668Z,3.00
2022-08-20T07:39:30.007Z,3.10
2022-08-20T07:42:03.925Z,3.00
2022-08-20T07:44:33.276Z,2.83
2022-08-20T07:47:01.315Z,2.70
2022-08-20T07:49:30.925Z,2.90
2022-08-20T07:51:58.885Z,3.07
2022-08-20T07:54:27.971Z,3.10
2022-08-20T07:57:02.468Z,3.10
2022-08-20T07:59:31.263Z,2.67
2022-08-20T08:02:00.531Z,3.10
2022-08-20T08:04:28.466Z,2.77
2022-08-20T08:07:00.000Z,2.90
2022-08-20T08:09:29.469Z,2.80
2022-08-20T08:12:00.167Z,3.10
2022-08-20T08:14:32.460Z,2.47
2022-08-20T08:17:05.567Z,3.10
2022-08-20T08:19:38.714Z,2.90
2022-08-20T08:22:11.438Z,2.93
2022-08-20T08:24:40.474Z,3.77
2022-08-20T08:27:08.823Z,2.70
2022-08-20T08:29:37.465Z,3.10
2022-08-20T08:32:08.238Z,2.93
2022-08-20T08:34:38.053Z,2.60
2022-08-20T08:37:07.112Z,2.70
2022-08-20T08:39:35.236Z,3.00
2022-08-20T08:42:05.141Z,2.40
2022-08-20T08:44:38.575Z,2.10
2022-08-20T08:47:18.203Z,2.70
2022-08-20T08:49:48.013Z,2.80
2022-08-20T08:52:22.286Z,2.63
2022-08-20T08:54:54.044Z,2.23
2022-08-20T08:57:23.373Z,2.80
2022-08-20T09:00:04.377Z,2.90
2022-08-20T09:02:36.247Z,2.63
2022-08-20T09:05:13.291Z,2.90
2022-08-20T09:07:53.246Z,2.73
2022-08-20T09:10:23.206Z,3.03
2022-08-20T09:12:52.220Z,2.60
2022-08-20T09:15:21.151Z,2.60
2022-08-20T09:17:50.573Z,2.80
2022-08-20T09:20:19.293Z,1.93
2022-08-20T09:22:47.203Z,1.70
2022-08-20T09:25:16.239Z,1.60
2022-08-20T09:27:44.165Z,1.70
2022-08-20T09:30:15.827Z,2.20
2022-08-20T09:32:46.482Z,1.70
2022-08-20T09:35:16.573Z,1.70
2022-08-20T09:37:44.595Z,1.67
2022-08-20T09:40:14.446Z,1.80
2022-08-20T09:42:50.837Z,1.93
2022-08-20T09:45:19.547Z,1.63
2022-08-20T09:48:04.843Z,3.60
2022-08-20T09:50:37.886Z,2.00
2022-08-20T09:53:07.332Z,1.90
2022-08-20T09:55:37.466Z,1.80
2022-08-20T09:58:08.859Z,1.40
2022-08-20T10:00:37.052Z,1.27
2022-08-20T10:03:05.105Z,1.30
2022-08-20T10:05:33.060Z,1.50
2022-08-20T10:08:05.476Z,1.67
2022-08-20T10:10:33.531Z,1.53
2022-08-20T10:13:02.419Z,1.50
2022-08-20T10:15:31.056Z,1.53
2022-08-20T10:17:59.146Z,0.90
2022-08-20T10:20:27.303Z,1.00
2022-08-20T10:22:55.258Z,0.80
2022-08-20T10:25:24.662Z,0.80
2022-08-20T10:27:52.759Z,0.70
2022-08-20T10:30:20.861Z,0.53
2022-08-20T10:32:49.236Z,0.80
2022-08-20T10:35:17.271Z,0.80
2022-08-20T10:37:45.967Z,1.00
2022-08-20T10:40:15.651Z,0.80
2022-08-20T10:42:45.560Z,0.80
2022-08-20T10:45:15.357Z,0.80
2022-08-20T10:47:44.227Z,0.80
2022-08-20T10:50:16.183Z,0.90
2022-08-20T10:52:44.633Z,0.90
2022-08-20T10:55:12.842Z,1.10
2022-08-20T10:57:43.390Z,0.97
2022-08-20T11:00:15.636Z,1.00
2022-08-20T11:02:43.849Z,0.80
2022-08-20T11:05:11.916Z,0.83
2022-08-20T11:07:55.376Z,0.83
2022-08-20T11:10:30.370Z,0.70
2022-08-20T11:12:58.420Z,0.70
2022-08-20T11:15:28.303Z,0.70
2022-08-20T11:17:56.833Z,0.80
2022-08-20T11:20:26.405Z,0.87
2022-08-20T11:22:55.388Z,0.80
2022-08-20T11:25:25.169Z,0.83
2022-08-20T11:27:54.421Z,0.60
2022-08-20T11:30:25.354Z,0.80
2022-08-20T11:32:55.352Z,1.97
2022-08-20T11:35:47.999Z,0.83
2022-08-20T11:38:11.908Z,0.53
2022-08-20T11:40:40.013Z,0.63
2022-08-20T11:43:16.738Z,1.40
2022-08-20T11:45:46.587Z,1.03
2022-08-20T11:48:16.911Z,0.70
2022-08-20T11:50:44.967Z,0.80
2022-08-20T11:53:12.905Z,0.80
2022-08-20T11:55:43.368Z,1.10
2022-08-20T11:58:11.490Z,1.50
2022-08-20T12:00:41.037Z,1.20
2022-08-20T12:03:10.279Z,0.70
2022-08-20T12:05:43.907Z,0.83
2022-08-20T12:08:24.984Z,0.80
2022-08-20T12:10:56.385Z,0.60
2022-08-20T12:13:47.261Z,0.60
2022-08-20T12:16:12.546Z,0.80
2022-08-20T12:18:40.675Z,0.70
2022-08-20T12:21:10.081Z,0.90
2022-08-20T12:23:38.110Z,0.83
2022-08-20T12:26:06.380Z,0.97
2022-08-20T12:28:34.383Z,1.60
2022-08-20T12:31:02.397Z,1.10
2022-08-20T12:33:30.511Z,0.77
2022-08-20T12:35:59.010Z,0.70
2022-08-20T12:38:28.426Z,2.10
2022-08-20T12:40:56.530Z,1.30
2022-08-20T12:43:25.304Z,1.60
2022-08-20T12:45:53.449Z,0.80
2022-08-20T12:48:21.816Z,0.90
2022-08-20T12:50:50.529Z,0.93
2022-08-20T12:53:18.839Z,0.90
2022-08-20T12:55:48.257Z,1.00
2022-08-20T12:58:16.253Z,1.80
2022-08-20T13:00:50.923Z,1.43
2022-08-20T13:03:20.695Z,1.73
2022-08-20T13:05:49.813Z,1.67
2022-08-20T13:08:19.227Z,1.83
2022-08-20T13:10:49.123Z,1.80
2022-08-20T13:13:20.981Z,1.67
2022-08-20T13:15:50.671Z,1.57
2022-08-20T13:18:19.316Z,1.70
2022-08-20T13:20:47.586Z,1.30
2022-08-20T13:23:15.867Z,1.80
2022-08-20T13:25:43.897Z,1.40
2022-08-20T13:28:13.206Z,1.60
2022-08-20T13:30:41.509Z,1.77
2022-08-20T13:33:09.482Z,1.73
2022-08-20T13:35:37.744Z,1.80
2022-08-20T13:38:05.797Z,1.77
2022-08-20T13:40:33.848Z,1.70
2022-08-20T13:43:06.544Z,1.80
2022-08-20T13:45:36.964Z,1.77
2022-08-20T13:48:06.316Z,1.50
2022-08-20T13:50:36.681Z,1.40
2022-08-20T13:53:05.610Z,1.70
2022-08-20T13:55:35.306Z,1.30
2022-08-20T13:58:07.571Z,1.50
2022-08-20T14:00:37.487Z,1.57
2022-08-20T14:03:07.135Z,1.43
2022-08-20T14:05:35.756Z,1.30
2022-08-20T14:08:08.864Z,1.30
2022-08-20T14:10:37.565Z,1.37
2022-08-20T14:13:06.624Z,1.77
2022-08-20T14:15:36.677Z,1.20
2022-08-20T14:18:05.513Z,1.27
2022-08-20T14:20:35.111Z,1.20
2022-08-20T14:23:06.740Z,1.10
2022-08-20T14:25:34.725Z,1.23
2022-08-20T14:28:11.301Z,1.48
2022-08-20T14:30:41.076Z,1.65
2022-08-20T14:33:09.077Z,1.60
2022-08-20T14:35:37.196Z,1.38
2022-08-20T14:38:05.801Z,1.60
2022-08-20T14:40:34.479Z,1.27
2022-08-20T14:43:03.208Z,1.70
2022-08-20T14:45:31.490Z,1.38
2022-08-20T14:48:00.981Z,1.30
2022-08-20T14:50:31.607Z,1.00
2022-08-20T14:53:00.351Z,1.25
2022-08-20T14:55:32.953Z,1.00
2022-08-20T14:58:00.940Z,1.00
2022-08-20T15:00:33.801Z,0.90
2022-08-20T15:03:03.281Z,0.70
2022-08-20T15:05:31.425Z,0.80
2022-08-20T15:07:59.594Z,0.80
2022-08-20T15:10:31.220Z,0.65
2022-08-20T15:13:00.127Z,0.55
2022-08-20T15:15:28.692Z,0.90
2022-08-20T15:18:00.671Z,0.70
2022-08-20T15:20:33.183Z,0.80
2022-08-20T15:23:02.038Z,1.20
2022-08-20T15:25:36.463Z,0.60
2022-08-20T15:28:08.163Z,1.00
2022-08-20T15:30:37.529Z,1.75
2022-08-20T15:33:05.720Z,3.20
2022-08-20T15:35:35.242Z,1.15
2022-08-20T15:38:03.534Z,0.88
2022-08-20T15:40:33.289Z,0.60
2022-08-20T15:43:03.409Z,0.73
2022-08-20T15:45:31.990Z,0.60
2022-08-20T15:48:07.899Z,0.70
2022-08-20T15:50:55.140Z,0.63
2022-08-20T15:53:28.934Z,0.70
2022-08-20T15:56:03.950Z,1.50
2022-08-20T15:58:38.530Z,1.10
2022-08-20T16:01:24.755Z,1.15
2022-08-20T16:04:36.730Z,0.93
2022-08-20T16:07:15.179Z,1.10
2022-08-20T16:09:55.269Z,1.13
2022-08-20T16:12:31.195Z,1.17
2022-08-20T16:15:03.719Z,1.30
2022-08-20T16:17:34.512Z,1.35
2022-08-20T16:20:09.587Z,1.25
2022-08-20T16:22:44.022Z,1.30
2022-08-20T16:25:13.419Z,1.50
2022-08-20T16:27:52.043Z,1.33
2022-08-20T16:30:25.329Z,1.10
2022-08-20T16:32:59.758Z,1.30
2022-08-20T16:35:31.721Z,1.50
2022-08-20T16:38:10.862Z,2.22
2022-08-20T16:40:49.395Z,1.25
2022-08-20T16:43:22.395Z,1.10
2022-08-20T16:45:54.750Z,1.40
2022-08-20T16:48:22.992Z,1.10
2022-08-20T16:50:59.522Z,1.30
2022-08-20T16:53:29.277Z,1.20
2022-08-20T16:55:58.133Z,1.02
2022-08-20T16:58:26.320Z,1.00
2022-08-20T17:01:07.504Z,1.50
2022-08-20T17:03:39.997Z,1.27
2022-08-20T17:06:18.097Z,1.25
2022-08-20T17:08:51.217Z,1.83
2022-08-20T17:11:26.423Z,2.10
2022-08-20T17:14:11.396Z,1.30
2022-08-20T17:16:47.243Z,1.30
2022-08-20T17:19:20.118Z,1.30
2022-08-20T17:21:50.616Z,2.15
2022-08-20T17:24:26.862Z,1.23
2022-08-20T17:27:00.680Z,1.65
2022-08-20T17:29:30.679Z,1.60
2022-08-20T17:32:01.066Z,1.70
2022-08-20T17:34:32.418Z,1.63
2022-08-20T17:37:19.277Z,1.40
2022-08-20T17:39:50.897Z,2.00
2022-08-20T17:42:20.873Z,1.23
2022-08-20T17:44:52.497Z,1.20
2022-08-20T17:47:27.850Z,2.45
2022-08-20T17:50:03.145Z,3.77
2022-08-20T17:52:37.335Z,6.17
2022-08-20T17:55:09.447Z,11.53
2022-08-20T17:57:40.714Z,2.53
2022-08-20T18:00:14.301Z,2.03
2022-08-20T18:02:42.913Z,1.93
2022-08-20T18:05:17.495Z,1.47
2022-08-20T18:08:02.865Z,1.50
2022-08-20T18:10:41.108Z,1.90
2022-08-20T18:13:15.799Z,1.40
2022-08-20T18:15:50.567Z,1.20
2022-08-20T18:18:29.197Z,1.30
2022-08-20T18:21:32.940Z,4.07
2022-08-20T18:24:06.599Z,2.97
2022-08-20T18:26:44.907Z,2.57
2022-08-20T18:29:16.007Z,2.13
2022-08-20T18:31:49.956Z,1.80
2022-08-20T18:34:21.354Z,1.50
2022-08-20T18:37:01.548Z,2.17
2022-08-20T18:39:34.133Z,2.40
2022-08-20T18:42:10.816Z,2.00
2022-08-20T18:44:42.139Z,1.60
2022-08-20T18:47:22.669Z,1.60
2022-08-20T18:50:02.149Z,1.80
2022-08-20T18:52:32.607Z,3.67
2022-08-20T18:55:05.126Z,2.20
2022-08-20T18:57:40.763Z,1.90
2022-08-20T19:00:16.524Z,1.67
2022-08-20T19:02:56.681Z,1.60
2022-08-20T19:05:30.211Z,1.80
2022-08-20T19:08:01.435Z,1.80
2022-08-20T19:10:48.447Z,1.70
2022-08-20T19:13:34.600Z,1.60
2022-08-20T19:16:06.735Z,1.70
2022-08-20T19:18:41.804Z,1.53
2022-08-20T19:21:15.893Z,3.80
2022-08-20T19:23:53.179Z,2.27
2022-08-20T19:26:25.714Z,1.70
2022-08-20T19:28:58.963Z,1.57
2022-08-20T19:31:29.963Z,1.40
2022-08-20T19:34:03.935Z,2.07
2022-08-20T19:36:53.436Z,1.83
2022-08-20T19:39:23.908Z,1.70
2022-08-20T19:41:58.704Z,1.43
2022-08-20T19:44:37.588Z,4.30
2022-08-20T19:47:11.645Z,1.77
2022-08-20T19:49:54.783Z,1.50
2022-08-20T19:52:34.280Z,1.67
2022-08-20T19:55:04.089Z,1.60
2022-08-20T19:57:32.464Z,1.60
2022-08-20T20:00:12.964Z,1.40
2022-08-20T20:02:41.594Z,1.47
2022-08-20T20:05:11.467Z,1.53
2022-08-20T20:07:43.045Z,1.60
2022-08-20T20:10:21.236Z,1.47
2022-08-20T20:12:49.333Z,1.30
2022-08-20T20:15:19.427Z,1.50
2022-08-20T20:17:49.205Z,1.80
2022-08-20T20:20:29.745Z,1.50
2022-08-20T20:23:05.848Z,3.20
2022-08-20T20:25:41.799Z,1.80
2022-08-20T20:28:13.031Z,2.13
2022-08-20T20:30:44.748Z,2.20
2022-08-20T20:33:16.225Z,1.67
2022-08-20T20:35:46.057Z,1.57
2022-08-20T20:38:24.914Z,1.30
2022-08-20T20:40:54.531Z,1.90
2022-08-20T20:43:28.831Z,1.40
2022-08-20T20:46:06.705Z,1.53
2022-08-20T20:48:43.631Z,1.40
2022-08-20T20:51:16.848Z,1.50
2022-08-20T20:53:54.692Z,1.60
2022-08-20T20:56:33.163Z,1.57
2022-08-20T20:59:06.143Z,1.50
2022-08-20T21:01:48.390Z,1.77
2022-08-20T21:04:19.596Z,1.60
2022-08-20T21:06:47.739Z,1.60
2022-08-20T21:09:15.947Z,1.93
2022-08-20T21:11:43.990Z,3.73
2022-08-20T21:14:11.933Z,1.30
2022-08-20T21:16:41.447Z,1.57
2022-08-20T21:19:11.017Z,1.77
2022-08-20T21:21:40.312Z,1.57
2022-08-20T21:24:09.127Z,2.20
2022-08-20T21:26:37.857Z,1.40
2022-08-20T21:29:06.727Z,1.83
2022-08-20T21:31:37.844Z,1.70
2022-08-20T21:34:15.984Z,2.77
2022-08-20T21:36:44.357Z,2.10
2022-08-20T21:39:12.789Z,2.07
2022-08-20T21:41:42.680Z,1.83
2022-08-20T21:44:21.178Z,1.60
2022-08-20T21:46:49.705Z,1.70
2022-08-20T21:49:20.357Z,1.83
2022-08-20T21:51:48.729Z,1.70
2022-08-20T21:54:17.179Z,2.30
2022-08-20T21:56:49.130Z,2.00
2022-08-20T21:59:18.384Z,1.77
2022-08-20T22:01:46.588Z,1.60
2022-08-20T22:04:15.038Z,1.80
2022-08-20T22:06:44.898Z,2.07
2022-08-20T22:09:13.702Z,2.97
2022-08-20T22:11:41.734Z,1.60
2022-08-20T22:14:11.897Z,1.70
2022-08-20T22:16:42.988Z,1.70
2022-08-20T22:19:16.078Z,1.90
2022-08-20T22:21:46.215Z,2.13
2022-08-20T22:24:14.933Z,2.33
2022-08-20T22:26:43.758Z,1.80
2022-08-20T22:29:13.124Z,1.90
2022-08-20T22:31:43.212Z,1.73
2022-08-20T22:34:12.927Z,2.20
2022-08-20T22:36:41.706Z,2.20
2022-08-20T22:39:11.498Z,2.90
2022-08-20T22:41:40.010Z,2.40
2022-08-20T22:44:08.353Z,2.50
2022-08-20T22:46:43.636Z,1.90
2022-08-20T22:49:17.527Z,2.67
2022-08-20T22:51:45.944Z,2.27
2022-08-20T22:54:20.341Z,2.20
2022-08-20T22:56:48.429Z,2.23
2022-08-20T22:59:19.622Z,2.50
2022-08-20T23:01:47.900Z,2.17
2022-08-20T23:04:25.150Z,2.30
2022-08-20T23:06:53.866Z,2.03
2022-08-20T23:09:23.342Z,2.30
2022-08-20T23:11:53.477Z,2.53
2022-08-20T23:14:22.205Z,2.13
2022-08-20T23:17:00.713Z,2.10
2022-08-20T23:19:28.775Z,2.57
2022-08-20T23:21:56.786Z,2.50
2022-08-20T23:24:26.561Z,2.30
2022-08-20T23:26:54.587Z,2.43
2022-08-20T23:29:25.522Z,2.00
2022-08-20T23:31:54.972Z,1.77
2022-08-20T23:34:23.321Z,2.03
2022-08-20T23:36:52.444Z,1.90
2022-08-20T23:39:20.662Z,2.00
2022-08-20T23:41:50.122Z,1.90
2022-08-20T23:44:25.769Z,2.50
2022-08-20T23:46:56.561Z,1.93
2022-08-20T23:49:24.983Z,2.07
2022-08-20T23:51:53.006Z,1.90
2022-08-20T23:54:20.962Z,1.80
2022-08-20T23:56:50.553Z,1.60
2022-08-20T23:59:18.620Z,2.07
